Terminal Aerodrome Forecast
Issued by NWS Charleston, WV

Current Version | Previous Version | Text Only | Print | Product List | Glossary Off
Versions: 1 2 3 4 5 6 7 8 9 10 11 12 13 14 15 16 17 18 19 20 21 22 23 24 25 26 27 28 29 30 31 32

000
FTUS41 KRLX 200800 AAA
TAFBKW
TAF AMD
KBKW 200840Z 2009/2106 00000KT P6SM FEW120
     FM201500 25006KT P6SM BKN200
     FM201900 24010G19KT P6SM BKN120
     FM202300 23006KT P6SM BKN080
     FM210500 24005KT P6SM BKN030=

USA.gov is the U.S. government's official web portal to all federal, state and local government web resources and services.